sensor_id;sensor_type;location;lat;lon;timestamp;temperature;humidity
17992;DHT22;9121;50.926;5.340;2023-04-01T00:01:38;9.80;99.90
17992;DHT22;9121;50.926;5.340;2023-04-01T00:04:05;9.80;99.90
17992;DHT22;9121;50.926;5.340;2023-04-01T00:06:32;9.70;99.90
17992;DHT22;9121;50.926;5.340;2023-04-01T00:08:59;9.70;99.90
17992;DHT22;9121;50.926;5.340;2023-04-01T00:11:26;9.70;99.90
17992;DHT22;9121;50.926;5.340;2023-04-01T00:13:53;9.70;99.90
17992;DHT22;9121;50.926;5.340;2023-04-01T00:16:22;9.70;99.90
17992;DHT22;9121;50.926;5.340;2023-04-01T00:18:50;9.70;99.90
17992;DHT22;9121;50.926;5.340;2023-04-01T00:21:18;9.70;99.90
17992;DHT22;9121;50.926;5.340;2023-04-01T00:23:46;9.70;99.90
17992;DHT22;9121;50.926;5.340;2023-04-01T00:26:13;9.70;99.90
17992;DHT22;9121;50.926;5.340;2023-04-01T00:28:44;9.70;99.90
17992;DHT22;9121;50.926;5.340;2023-04-01T00:31:12;9.70;99.90
17992;DHT22;9121;50.926;5.340;2023-04-01T00:33:40;9.70;99.90
17992;DHT22;9121;50.926;5.340;2023-04-01T00:36:09;9.70;99.90
17992;DHT22;9121;50.926;5.340;2023-04-01T00:38:36;9.70;99.90
17992;DHT22;9121;50.926;5.340;2023-04-01T00:41:04;9.70;99.90
17992;DHT22;9121;50.926;5.340;2023-04-01T00:43:31;9.70;99.90
17992;DHT22;9121;50.926;5.340;2023-04-01T00:45:59;9.70;99.90
17992;DHT22;9121;50.926;5.340;2023-04-01T00:48:28;9.70;99.90
17992;DHT22;9121;50.926;5.340;2023-04-01T00:51:01;9.70;99.90
17992;DHT22;9121;50.926;5.340;2023-04-01T00:53:30;9.70;99.90
17992;DHT22;9121;50.926;5.340;2023-04-01T00:56:01;9.70;99.90
17992;DHT22;9121;50.926;5.340;2023-04-01T00:58:32;9.70;99.90
17992;DHT22;9121;50.926;5.340;2023-04-01T01:01:01;9.70;99.90
17992;DHT22;9121;50.926;5.340;2023-04-01T01:03:28;9.70;99.90
17992;DHT22;9121;50.926;5.340;2023-04-01T01:06:08;9.70;99.90
17992;DHT22;9121;50.926;5.340;2023-04-01T01:08:52;9.70;99.90
17992;DHT22;9121;50.926;5.340;2023-04-01T01:11:32;9.70;99.90
17992;DHT22;9121;50.926;5.340;2023-04-01T01:14:05;9.70;99.90
17992;DHT22;9121;50.926;5.340;2023-04-01T01:16:41;9.70;99.90
17992;DHT22;9121;50.926;5.340;2023-04-01T01:19:26;9.70;99.90
17992;DHT22;9121;50.926;5.340;2023-04-01T01:25:09;9.80;99.90
17992;DHT22;9121;50.926;5.340;2023-04-01T01:27:41;9.80;99.90
17992;DHT22;9121;50.926;5.340;2023-04-01T01:30:25;9.80;99.90
17992;DHT22;9121;50.926;5.340;2023-04-01T01:33:12;9.80;99.90
17992;DHT22;9121;50.926;5.340;2023-04-01T01:35:48;9.80;99.90
17992;DHT22;9121;50.926;5.340;2023-04-01T01:38:18;9.80;99.90
17992;DHT22;9121;50.926;5.340;2023-04-01T01:40:48;9.80;99.90
17992;DHT22;9121;50.926;5.340;2023-04-01T01:43:21;9.90;99.90
17992;DHT22;9121;50.926;5.340;2023-04-01T01:45:50;9.90;99.90
17992;DHT22;9121;50.926;5.340;2023-04-01T01:48:19;9.90;99.90
17992;DHT22;9121;50.926;5.340;2023-04-01T01:50:48;9.90;99.90
17992;DHT22;9121;50.926;5.340;2023-04-01T01:53:16;9.90;99.90
17992;DHT22;9121;50.926;5.340;2023-04-01T01:55:45;9.90;99.90
17992;DHT22;9121;50.926;5.340;2023-04-01T01:58:16;9.90;99.90
17992;DHT22;9121;50.926;5.340;2023-04-01T02:00:48;9.90;99.90
17992;DHT22;9121;50.926;5.340;2023-04-01T02:03:16;9.90;99.90
17992;DHT22;9121;50.926;5.340;2023-04-01T02:05:44;9.90;99.90
17992;DHT22;9121;50.926;5.340;2023-04-01T02:08:16;9.90;99.90
17992;DHT22;9121;50.926;5.340;2023-04-01T02:10:47;9.90;99.90
17992;DHT22;9121;50.926;5.340;2023-04-01T02:13:27;9.90;99.90
17992;DHT22;9121;50.926;5.340;2023-04-01T02:16:00;9.90;99.90
17992;DHT22;9121;50.926;5.340;2023-04-01T02:18:31;9.90;99.90
17992;DHT22;9121;50.926;5.340;2023-04-01T02:21:00;9.90;99.90
17992;DHT22;9121;50.926;5.340;2023-04-01T02:23:32;9.90;99.90
17992;DHT22;9121;50.926;5.340;2023-04-01T02:26:00;9.90;99.90
17992;DHT22;9121;50.926;5.340;2023-04-01T02:28:29;9.90;99.90
17992;DHT22;9121;50.926;5.340;2023-04-01T02:30:59;10.00;99.90
17992;DHT22;9121;50.926;5.340;2023-04-01T02:33:28;10.00;99.90
17992;DHT22;9121;50.926;5.340;2023-04-01T02:35:57;10.00;99.90
17992;DHT22;9121;50.926;5.340;2023-04-01T02:38:24;10.00;99.90
17992;DHT22;9121;50.926;5.340;2023-04-01T02:40:58;10.00;99.90
17992;DHT22;9121;50.926;5.340;2023-04-01T02:43:26;10.00;99.90
17992;DHT22;9121;50.926;5.340;2023-04-01T02:45:53;10.00;99.90
17992;DHT22;9121;50.926;5.340;2023-04-01T02:48:20;10.00;99.90
17992;DHT22;9121;50.926;5.340;2023-04-01T02:50:47;10.00;99.90
17992;DHT22;9121;50.926;5.340;2023-04-01T02:53:14;10.00;99.90
17992;DHT22;9121;50.926;5.340;2023-04-01T02:55:41;10.00;99.90
17992;DHT22;9121;50.926;5.340;2023-04-01T02:58:09;10.00;99.90
17992;DHT22;9121;50.926;5.340;2023-04-01T03:00:36;10.00;99.90
17992;DHT22;9121;50.926;5.340;2023-04-01T03:03:03;10.00;99.90
17992;DHT22;9121;50.926;5.340;2023-04-01T03:05:30;10.10;99.90
17992;DHT22;9121;50.926;5.340;2023-04-01T03:07:57;10.10;99.90
17992;DHT22;9121;50.926;5.340;2023-04-01T03:10:24;10.10;99.90
17992;DHT22;9121;50.926;5.340;2023-04-01T03:12:51;10.10;99.90
17992;DHT22;9121;50.926;5.340;2023-04-01T03:15:19;10.10;99.90
17992;DHT22;9121;50.926;5.340;2023-04-01T03:17:46;10.10;99.90
17992;DHT22;9121;50.926;5.340;2023-04-01T03:20:14;10.10;99.90
17992;DHT22;9121;50.926;5.340;2023-04-01T03:22:41;10.10;99.90
17992;DHT22;9121;50.926;5.340;2023-04-01T03:25:10;10.10;99.90
17992;DHT22;9121;50.926;5.340;2023-04-01T03:27:37;10.10;99.90
17992;DHT22;9121;50.926;5.340;2023-04-01T03:30:06;10.00;99.90
17992;DHT22;9121;50.926;5.340;2023-04-01T03:32:34;10.00;99.90
17992;DHT22;9121;50.926;5.340;2023-04-01T03:35:01;10.00;99.90
17992;DHT22;9121;50.926;5.340;2023-04-01T03:37:28;10.10;99.90
17992;DHT22;9121;50.926;5.340;2023-04-01T03:39:55;10.10;99.90
17992;DHT22;9121;50.926;5.340;2023-04-01T03:42:22;10.10;99.90
17992;DHT22;9121;50.926;5.340;2023-04-01T03:44:49;10.20;99.90
17992;DHT22;9121;50.926;5.340;2023-04-01T03:47:16;10.10;99.90
17992;DHT22;9121;50.926;5.340;2023-04-01T03:49:44;10.10;99.90
17992;DHT22;9121;50.926;5.340;2023-04-01T03:52:11;10.10;99.90
17992;DHT22;9121;50.926;5.340;2023-04-01T03:54:38;10.10;99.90
17992;DHT22;9121;50.926;5.340;2023-04-01T03:57:05;10.10;99.90
17992;DHT22;9121;50.926;5.340;2023-04-01T03:59:32;10.10;99.90
17992;DHT22;9121;50.926;5.340;2023-04-01T04:01:59;10.10;99.90
17992;DHT22;9121;50.926;5.340;2023-04-01T04:04:27;10.10;99.90
17992;DHT22;9121;50.926;5.340;2023-04-01T04:06:55;10.10;99.90
17992;DHT22;9121;50.926;5.340;2023-04-01T04:09:23;10.10;99.90
17992;DHT22;9121;50.926;5.340;2023-04-01T04:11:49;10.00;99.90
17992;DHT22;9121;50.926;5.340;2023-04-01T04:14:17;10.00;99.90
17992;DHT22;9121;50.926;5.340;2023-04-01T04:16:44;10.00;99.90
17992;DHT22;9121;50.926;5.340;2023-04-01T04:19:10;9.90;99.90
17992;DHT22;9121;50.926;5.340;2023-04-01T04:21:38;9.90;99.90
17992;DHT22;9121;50.926;5.340;2023-04-01T04:24:08;9.90;99.90
17992;DHT22;9121;50.926;5.340;2023-04-01T04:26:35;9.90;99.90
17992;DHT22;9121;50.926;5.340;2023-04-01T04:29:02;9.90;99.90
17992;DHT22;9121;50.926;5.340;2023-04-01T04:31:29;9.80;99.90
17992;DHT22;9121;50.926;5.340;2023-04-01T04:33:58;9.80;99.90
17992;DHT22;9121;50.926;5.340;2023-04-01T04:36:25;9.80;99.90
17992;DHT22;9121;50.926;5.340;2023-04-01T04:38:52;9.90;99.90
17992;DHT22;9121;50.926;5.340;2023-04-01T04:41:20;9.90;99.90
17992;DHT22;9121;50.926;5.340;2023-04-01T04:43:49;9.90;99.90
17992;DHT22;9121;50.926;5.340;2023-04-01T04:46:17;9.80;99.90
17992;DHT22;9121;50.926;5.340;2023-04-01T04:48:45;9.80;99.90
17992;DHT22;9121;50.926;5.340;2023-04-01T04:51:15;9.80;99.90
17992;DHT22;9121;50.926;5.340;2023-04-01T04:53:43;9.80;99.90
17992;DHT22;9121;50.926;5.340;2023-04-01T04:56:10;9.80;99.90
17992;DHT22;9121;50.926;5.340;2023-04-01T04:58:38;9.80;99.90
17992;DHT22;9121;50.926;5.340;2023-04-01T05:01:07;9.80;99.90
17992;DHT22;9121;50.926;5.340;2023-04-01T05:03:34;9.70;99.90
17992;DHT22;9121;50.926;5.340;2023-04-01T05:06:01;9.70;99.90
17992;DHT22;9121;50.926;5.340;2023-04-01T05:08:28;9.70;99.90
17992;DHT22;9121;50.926;5.340;2023-04-01T05:10:55;9.70;99.90
17992;DHT22;9121;50.926;5.340;2023-04-01T05:13:22;9.70;99.90
17992;DHT22;9121;50.926;5.340;2023-04-01T05:15:50;9.70;99.90
17992;DHT22;9121;50.926;5.340;2023-04-01T05:18:17;9.70;99.90
17992;DHT22;9121;50.926;5.340;2023-04-01T05:20:48;9.80;99.90
17992;DHT22;9121;50.926;5.340;2023-04-01T05:23:16;9.90;99.90
17992;DHT22;9121;50.926;5.340;2023-04-01T05:25:44;9.80;99.90
17992;DHT22;9121;50.926;5.340;2023-04-01T05:28:11;9.80;99.90
17992;DHT22;9121;50.926;5.340;2023-04-01T05:30:39;9.90;99.90
17992;DHT22;9121;50.926;5.340;2023-04-01T05:33:08;9.90;99.90
17992;DHT22;9121;50.926;5.340;2023-04-01T05:35:36;9.90;99.90
17992;DHT22;9121;50.926;5.340;2023-04-01T05:38:03;9.90;99.90
17992;DHT22;9121;50.926;5.340;2023-04-01T05:40:31;9.90;99.90
17992;DHT22;9121;50.926;5.340;2023-04-01T05:42:58;9.90;99.90
17992;DHT22;9121;50.926;5.340;2023-04-01T05:45:26;9.90;99.90
17992;DHT22;9121;50.926;5.340;2023-04-01T05:47:53;9.90;99.90
17992;DHT22;9121;50.926;5.340;2023-04-01T05:50:21;10.00;99.90
17992;DHT22;9121;50.926;5.340;2023-04-01T05:52:48;10.00;99.90
17992;DHT22;9121;50.926;5.340;2023-04-01T05:55:15;10.00;99.90
17992;DHT22;9121;50.926;5.340;2023-04-01T05:57:44;9.90;99.90
17992;DHT22;9121;50.926;5.340;2023-04-01T06:00:12;9.90;99.90
17992;DHT22;9121;50.926;5.340;2023-04-01T06:02:40;9.90;99.90
17992;DHT22;9121;50.926;5.340;2023-04-01T06:05:14;9.90;99.90
17992;DHT22;9121;50.926;5.340;2023-04-01T06:07:42;9.90;99.90
17992;DHT22;9121;50.926;5.340;2023-04-01T06:10:13;9.90;99.90
17992;DHT22;9121;50.926;5.340;2023-04-01T06:12:48;9.90;99.90
17992;DHT22;9121;50.926;5.340;2023-04-01T06:15:35;9.90;99.90
17992;DHT22;9121;50.926;5.340;2023-04-01T06:18:42;9.90;99.90
17992;DHT22;9121;50.926;5.340;2023-04-01T06:21:36;9.90;99.90
17992;DHT22;9121;50.926;5.340;2023-04-01T06:24:29;9.80;99.90
17992;DHT22;9121;50.926;5.340;2023-04-01T06:27:04;9.80;99.90
17992;DHT22;9121;50.926;5.340;2023-04-01T06:29:57;9.80;99.90
17992;DHT22;9121;50.926;5.340;2023-04-01T06:32:49;9.80;99.90
17992;DHT22;9121;50.926;5.340;2023-04-01T06:35:30;9.80;99.90
17992;DHT22;9121;50.926;5.340;2023-04-01T06:38:19;9.80;99.90
17992;DHT22;9121;50.926;5.340;2023-04-01T06:41:05;9.80;99.90
17992;DHT22;9121;50.926;5.340;2023-04-01T06:43:49;9.80;99.90
17992;DHT22;9121;50.926;5.340;2023-04-01T06:46:24;9.90;99.90
17992;DHT22;9121;50.926;5.340;2023-04-01T06:49:12;9.90;99.90
17992;DHT22;9121;50.926;5.340;2023-04-01T06:51:51;9.90;99.90
17992;DHT22;9121;50.926;5.340;2023-04-01T06:54:25;9.90;99.90
17992;DHT22;9121;50.926;5.340;2023-04-01T06:56:59;9.90;99.90
17992;DHT22;9121;50.926;5.340;2023-04-01T06:59:28;9.80;99.90
17992;DHT22;9121;50.926;5.340;2023-04-01T07:01:59;9.80;99.90
17992;DHT22;9121;50.926;5.340;2023-04-01T07:04:30;9.80;99.90
17992;DHT22;9121;50.926;5.340;2023-04-01T07:07:00;9.90;99.90
17992;DHT22;9121;50.926;5.340;2023-04-01T07:09:32;10.00;99.90
17992;DHT22;9121;50.926;5.340;2023-04-01T07:12:05;10.00;99.90
17992;DHT22;9121;50.926;5.340;2023-04-01T07:14:38;10.10;99.90
17992;DHT22;9121;50.926;5.340;2023-04-01T07:17:11;10.10;99.90
17992;DHT22;9121;50.926;5.340;2023-04-01T07:19:42;10.10;99.90
17992;DHT22;9121;50.926;5.340;2023-04-01T07:22:21;10.10;99.90
17992;DHT22;9121;50.926;5.340;2023-04-01T07:24:51;10.10;99.90
17992;DHT22;9121;50.926;5.340;2023-04-01T07:27:22;10.10;99.90
17992;DHT22;9121;50.926;5.340;2023-04-01T07:29:49;10.00;99.90
17992;DHT22;9121;50.926;5.340;2023-04-01T07:32:27;10.00;99.90
17992;DHT22;9121;50.926;5.340;2023-04-01T07:35:02;9.90;99.90
17992;DHT22;9121;50.926;5.340;2023-04-01T07:37:38;10.00;99.90
17992;DHT22;9121;50.926;5.340;2023-04-01T07:40:15;10.00;99.90
17992;DHT22;9121;50.926;5.340;2023-04-01T07:42:57;10.10;99.90
17992;DHT22;9121;50.926;5.340;2023-04-01T07:45:35;10.10;99.90
17992;DHT22;9121;50.926;5.340;2023-04-01T07:48:12;10.00;99.90
17992;DHT22;9121;50.926;5.340;2023-04-01T07:50:47;10.10;99.90
17992;DHT22;9121;50.926;5.340;2023-04-01T07:53:22;10.00;99.90
17992;DHT22;9121;50.926;5.340;2023-04-01T07:55:56;10.00;99.90
17992;DHT22;9121;50.926;5.340;2023-04-01T07:58:31;10.00;99.90
17992;DHT22;9121;50.926;5.340;2023-04-01T08:01:03;9.90;99.90
17992;DHT22;9121;50.926;5.340;2023-04-01T08:03:38;9.80;99.90
17992;DHT22;9121;50.926;5.340;2023-04-01T08:06:13;9.80;99.90
17992;DHT22;9121;50.926;5.340;2023-04-01T08:08:50;9.80;99.90
17992;DHT22;9121;50.926;5.340;2023-04-01T08:11:28;9.90;99.90
17992;DHT22;9121;50.926;5.340;2023-04-01T08:14:05;9.90;99.90
17992;DHT22;9121;50.926;5.340;2023-04-01T08:16:38;10.00;99.90
17992;DHT22;9121;50.926;5.340;2023-04-01T08:19:23;10.00;99.90
17992;DHT22;9121;50.926;5.340;2023-04-01T08:21:55;10.10;99.90
17992;DHT22;9121;50.926;5.340;2023-04-01T08:24:27;10.00;99.90
17992;DHT22;9121;50.926;5.340;2023-04-01T08:26:58;10.00;99.90
17992;DHT22;9121;50.926;5.340;2023-04-01T08:29:33;9.90;99.90
17992;DHT22;9121;50.926;5.340;2023-04-01T08:32:06;9.90;99.90
17992;DHT22;9121;50.926;5.340;2023-04-01T08:34:37;10.00;99.90
17992;DHT22;9121;50.926;5.340;2023-04-01T08:37:10;10.10;99.90
17992;DHT22;9121;50.926;5.340;2023-04-01T08:39:39;10.10;99.90
17992;DHT22;9121;50.926;5.340;2023-04-01T08:42:36;10.10;99.90
17992;DHT22;9121;50.926;5.340;2023-04-01T08:45:30;10.00;99.90
17992;DHT22;9121;50.926;5.340;2023-04-01T08:48:19;10.00;99.90
17992;DHT22;9121;50.926;5.340;2023-04-01T08:51:11;10.10;99.90
17992;DHT22;9121;50.926;5.340;2023-04-01T08:54:01;10.20;99.90
17992;DHT22;9121;50.926;5.340;2023-04-01T08:56:34;10.20;99.90
17992;DHT22;9121;50.926;5.340;2023-04-01T08:59:24;10.20;99.90
17992;DHT22;9121;50.926;5.340;2023-04-01T09:02:18;10.20;99.90
17992;DHT22;9121;50.926;5.340;2023-04-01T09:05:06;10.20;99.90
17992;DHT22;9121;50.926;5.340;2023-04-01T09:07:45;10.20;99.90
17992;DHT22;9121;50.926;5.340;2023-04-01T09:10:30;10.30;99.90
17992;DHT22;9121;50.926;5.340;2023-04-01T09:16:05;10.20;99.90
17992;DHT22;9121;50.926;5.340;2023-04-01T09:22:10;10.20;99.90
17992;DHT22;9121;50.926;5.340;2023-04-01T09:27:36;10.30;99.90
17992;DHT22;9121;50.926;5.340;2023-04-01T09:30:36;10.30;99.90
17992;DHT22;9121;50.926;5.340;2023-04-01T09:36:17;10.40;99.90
17992;DHT22;9121;50.926;5.340;2023-04-01T09:38:56;10.50;99.90
17992;DHT22;9121;50.926;5.340;2023-04-01T09:41:31;10.70;99.90
17992;DHT22;9121;50.926;5.340;2023-04-01T09:44:02;10.80;99.90
17992;DHT22;9121;50.926;5.340;2023-04-01T09:46:43;10.90;99.90
17992;DHT22;9121;50.926;5.340;2023-04-01T09:49:39;11.00;99.90
17992;DHT22;9121;50.926;5.340;2023-04-01T09:52:21;11.10;99.90
17992;DHT22;9121;50.926;5.340;2023-04-01T09:55:15;11.10;99.90
17992;DHT22;9121;50.926;5.340;2023-04-01T09:58:08;11.10;99.90
17992;DHT22;9121;50.926;5.340;2023-04-01T10:01:05;10.90;99.90
17992;DHT22;9121;50.926;5.340;2023-04-01T10:04:08;10.80;99.90
17992;DHT22;9121;50.926;5.340;2023-04-01T10:16:25;11.00;99.90
17992;DHT22;9121;50.926;5.340;2023-04-01T10:22:22;10.90;99.90
17992;DHT22;9121;50.926;5.340;2023-04-01T10:28:15;10.90;99.90
17992;DHT22;9121;50.926;5.340;2023-04-01T10:34:37;11.10;99.90
17992;DHT22;9121;50.926;5.340;2023-04-01T10:37:23;11.10;99.90
17992;DHT22;9121;50.926;5.340;2023-04-01T10:40:30;11.10;99.90
17992;DHT22;9121;50.926;5.340;2023-04-01T10:43:24;11.20;99.90
17992;DHT22;9121;50.926;5.340;2023-04-01T10:46:30;11.10;99.90
17992;DHT22;9121;50.926;5.340;2023-04-01T10:49:31;11.20;99.90
17992;DHT22;9121;50.926;5.340;2023-04-01T11:01:22;10.70;99.90
17992;DHT22;9121;50.926;5.340;2023-04-01T11:04:24;10.70;99.90
17992;DHT22;9121;50.926;5.340;2023-04-01T11:07:22;10.80;99.90
17992;DHT22;9121;50.926;5.340;2023-04-01T11:16:47;10.80;99.90
17992;DHT22;9121;50.926;5.340;2023-04-01T11:28:55;10.80;99.90
17992;DHT22;9121;50.926;5.340;2023-04-01T11:31:37;10.90;99.90
17992;DHT22;9121;50.926;5.340;2023-04-01T11:34:21;10.80;99.90
17992;DHT22;9121;50.926;5.340;2023-04-01T11:37:00;10.80;99.90
17992;DHT22;9121;50.926;5.340;2023-04-01T11:39:36;10.90;99.90
17992;DHT22;9121;50.926;5.340;2023-04-01T11:42:12;10.90;99.90
17992;DHT22;9121;50.926;5.340;2023-04-01T11:44:51;10.80;99.90
17992;DHT22;9121;50.926;5.340;2023-04-01T11:47:38;10.80;99.90
17992;DHT22;9121;50.926;5.340;2023-04-01T11:50:16;10.80;99.90
17992;DHT22;9121;50.926;5.340;2023-04-01T11:53:08;10.80;99.90
17992;DHT22;9121;50.926;5.340;2023-04-01T11:55:50;10.90;99.90
17992;DHT22;9121;50.926;5.340;2023-04-01T11:58:34;11.00;99.90
17992;DHT22;9121;50.926;5.340;2023-04-01T12:01:26;10.90;99.90
17992;DHT22;9121;50.926;5.340;2023-04-01T12:07:06;10.90;99.90
17992;DHT22;9121;50.926;5.340;2023-04-01T12:09:43;11.00;99.90
17992;DHT22;9121;50.926;5.340;2023-04-01T12:12:17;11.00;99.90
17992;DHT22;9121;50.926;5.340;2023-04-01T12:14:58;10.90;99.90
17992;DHT22;9121;50.926;5.340;2023-04-01T12:17:35;11.00;99.90
17992;DHT22;9121;50.926;5.340;2023-04-01T12:20:21;11.20;99.90
17992;DHT22;9121;50.926;5.340;2023-04-01T12:22:55;11.30;99.90
17992;DHT22;9121;50.926;5.340;2023-04-01T12:28:24;11.20;99.90
17992;DHT22;9121;50.926;5.340;2023-04-01T12:31:18;11.10;99.90
17992;DHT22;9121;50.926;5.340;2023-04-01T12:34:13;11.00;99.90
17992;DHT22;9121;50.926;5.340;2023-04-01T12:36:54;10.90;99.90
17992;DHT22;9121;50.926;5.340;2023-04-01T12:39:53;11.00;99.90
17992;DHT22;9121;50.926;5.340;2023-04-01T12:42:35;11.00;99.90
17992;DHT22;9121;50.926;5.340;2023-04-01T12:48:19;11.00;99.90
17992;DHT22;9121;50.926;5.340;2023-04-01T12:51:08;11.00;99.90
17992;DHT22;9121;50.926;5.340;2023-04-01T12:53:48;11.00;99.90
17992;DHT22;9121;50.926;5.340;2023-04-01T12:56:27;11.10;99.90
17992;DHT22;9121;50.926;5.340;2023-04-01T12:59:19;11.10;99.90
17992;DHT22;9121;50.926;5.340;2023-04-01T13:02:01;11.10;99.90
17992;DHT22;9121;50.926;5.340;2023-04-01T13:05:14;11.20;99.90
17992;DHT22;9121;50.926;5.340;2023-04-01T13:08:04;11.10;99.90
17992;DHT22;9121;50.926;5.340;2023-04-01T13:10:47;11.20;99.90
17992;DHT22;9121;50.926;5.340;2023-04-01T13:13:48;11.20;99.90
17992;DHT22;9121;50.926;5.340;2023-04-01T13:16:21;11.30;99.90
17992;DHT22;9121;50.926;5.340;2023-04-01T13:18:57;11.30;99.90
17992;DHT22;9121;50.926;5.340;2023-04-01T13:21:33;11.20;99.90
17992;DHT22;9121;50.926;5.340;2023-04-01T13:24:07;11.10;99.90
17992;DHT22;9121;50.926;5.340;2023-04-01T13:26:40;11.10;99.90
17992;DHT22;9121;50.926;5.340;2023-04-01T13:29:15;11.10;99.90
17992;DHT22;9121;50.926;5.340;2023-04-01T13:31:54;11.20;99.90
17992;DHT22;9121;50.926;5.340;2023-04-01T13:34:31;11.40;99.90
17992;DHT22;9121;50.926;5.340;2023-04-01T13:37:09;11.40;99.90
17992;DHT22;9121;50.926;5.340;2023-04-01T13:39:57;11.50;99.90
17992;DHT22;9121;50.926;5.340;2023-04-01T13:42:33;11.40;99.90
17992;DHT22;9121;50.926;5.340;2023-04-01T13:45:02;11.30;99.90
17992;DHT22;9121;50.926;5.340;2023-04-01T13:51:25;11.30;99.90
17992;DHT22;9121;50.926;5.340;2023-04-01T13:54:30;11.20;99.90
17992;DHT22;9121;50.926;5.340;2023-04-01T13:57:14;11.10;99.90
17992;DHT22;9121;50.926;5.340;2023-04-01T14:00:03;11.10;99.90
17992;DHT22;9121;50.926;5.340;2023-04-01T14:02:46;10.90;99.90
17992;DHT22;9121;50.926;5.340;2023-04-01T14:05:40;10.90;99.90
17992;DHT22;9121;50.926;5.340;2023-04-01T14:08:20;11.00;99.90
17992;DHT22;9121;50.926;5.340;2023-04-01T14:11:00;11.00;99.90
17992;DHT22;9121;50.926;5.340;2023-04-01T14:13:37;11.10;99.90
17992;DHT22;9121;50.926;5.340;2023-04-01T14:16:36;11.10;99.90
17992;DHT22;9121;50.926;5.340;2023-04-01T14:19:14;11.10;99.90
17992;DHT22;9121;50.926;5.340;2023-04-01T14:21:50;11.00;99.90
17992;DHT22;9121;50.926;5.340;2023-04-01T14:24:45;10.80;99.90
17992;DHT22;9121;50.926;5.340;2023-04-01T14:27:41;10.80;99.90
17992;DHT22;9121;50.926;5.340;2023-04-01T14:30:26;10.80;99.90
17992;DHT22;9121;50.926;5.340;2023-04-01T14:32:58;10.80;99.90
17992;DHT22;9121;50.926;5.340;2023-04-01T14:35:37;10.90;99.90
17992;DHT22;9121;50.926;5.340;2023-04-01T14:38:30;10.90;99.90
17992;DHT22;9121;50.926;5.340;2023-04-01T14:41:11;11.00;99.90
17992;DHT22;9121;50.926;5.340;2023-04-01T14:44:02;11.10;99.90
17992;DHT22;9121;50.926;5.340;2023-04-01T14:46:53;11.10;99.90
17992;DHT22;9121;50.926;5.340;2023-04-01T14:49:33;11.00;99.90
17992;DHT22;9121;50.926;5.340;2023-04-01T14:52:11;11.00;99.90
17992;DHT22;9121;50.926;5.340;2023-04-01T14:54:42;11.00;99.90
17992;DHT22;9121;50.926;5.340;2023-04-01T14:57:12;11.00;99.90
17992;DHT22;9121;50.926;5.340;2023-04-01T14:59:40;11.00;99.90
17992;DHT22;9121;50.926;5.340;2023-04-01T15:05:13;11.10;99.90
17992;DHT22;9121;50.926;5.340;2023-04-01T15:11:21;11.00;99.90
17992;DHT22;9121;50.926;5.340;2023-04-01T15:14:13;11.10;99.90
17992;DHT22;9121;50.926;5.340;2023-04-01T15:16:52;11.00;99.90
17992;DHT22;9121;50.926;5.340;2023-04-01T15:19:30;11.00;99.90
17992;DHT22;9121;50.926;5.340;2023-04-01T15:22:29;11.00;99.90
17992;DHT22;9121;50.926;5.340;2023-04-01T15:25:13;11.00;99.90
17992;DHT22;9121;50.926;5.340;2023-04-01T15:27:49;11.00;99.90
17992;DHT22;9121;50.926;5.340;2023-04-01T15:30:24;11.10;99.90
17992;DHT22;9121;50.926;5.340;2023-04-01T15:33:06;11.20;99.90
17992;DHT22;9121;50.926;5.340;2023-04-01T15:35:45;11.30;99.90
17992;DHT22;9121;50.926;5.340;2023-04-01T15:38:21;11.40;99.90
17992;DHT22;9121;50.926;5.340;2023-04-01T15:40:53;11.40;99.90
17992;DHT22;9121;50.926;5.340;2023-04-01T15:43:30;11.30;99.90
17992;DHT22;9121;50.926;5.340;2023-04-01T15:46:21;11.20;99.90
17992;DHT22;9121;50.926;5.340;2023-04-01T15:48:57;11.20;99.90
17992;DHT22;9121;50.926;5.340;2023-04-01T15:51:45;11.10;99.90
17992;DHT22;9121;50.926;5.340;2023-04-01T15:54:31;11.10;99.90
17992;DHT22;9121;50.926;5.340;2023-04-01T15:57:20;11.20;99.90
17992;DHT22;9121;50.926;5.340;2023-04-01T16:00:19;11.30;99.90
17992;DHT22;9121;50.926;5.340;2023-04-01T16:02:49;11.30;99.90
17992;DHT22;9121;50.926;5.340;2023-04-01T16:05:33;11.40;99.90
17992;DHT22;9121;50.926;5.340;2023-04-01T16:11:15;11.50;99.90
17992;DHT22;9121;50.926;5.340;2023-04-01T16:13:53;11.60;99.90
17992;DHT22;9121;50.926;5.340;2023-04-01T16:16:35;11.60;99.90
17992;DHT22;9121;50.926;5.340;2023-04-01T16:19:24;11.60;99.90
17992;DHT22;9121;50.926;5.340;2023-04-01T16:21:57;11.40;99.90
17992;DHT22;9121;50.926;5.340;2023-04-01T16:24:34;11.30;99.90
17992;DHT22;9121;50.926;5.340;2023-04-01T16:27:05;11.30;99.90
17992;DHT22;9121;50.926;5.340;2023-04-01T16:29:41;11.20;99.90
17992;DHT22;9121;50.926;5.340;2023-04-01T16:32:20;11.20;99.90
17992;DHT22;9121;50.926;5.340;2023-04-01T16:35:00;11.10;99.90
17992;DHT22;9121;50.926;5.340;2023-04-01T16:37:34;11.10;99.90
17992;DHT22;9121;50.926;5.340;2023-04-01T16:40:16;11.10;99.90
17992;DHT22;9121;50.926;5.340;2023-04-01T16:42:50;11.10;99.90
17992;DHT22;9121;50.926;5.340;2023-04-01T16:45:30;11.10;99.90
17992;DHT22;9121;50.926;5.340;2023-04-01T16:48:05;11.00;99.90
17992;DHT22;9121;50.926;5.340;2023-04-01T16:50:51;11.00;99.90
17992;DHT22;9121;50.926;5.340;2023-04-01T16:53:25;11.00;99.90
17992;DHT22;9121;50.926;5.340;2023-04-01T16:56:07;11.00;99.90
17992;DHT22;9121;50.926;5.340;2023-04-01T16:58:41;11.00;99.90
17992;DHT22;9121;50.926;5.340;2023-04-01T17:01:13;10.80;99.90
17992;DHT22;9121;50.926;5.340;2023-04-01T17:03:44;10.80;99.90
17992;DHT22;9121;50.926;5.340;2023-04-01T17:06:24;10.70;99.90
17992;DHT22;9121;50.926;5.340;2023-04-01T17:09:03;10.60;99.90
17992;DHT22;9121;50.926;5.340;2023-04-01T17:11:39;10.60;99.90
17992;DHT22;9121;50.926;5.340;2023-04-01T17:14:14;10.60;99.90
17992;DHT22;9121;50.926;5.340;2023-04-01T17:16:52;10.50;99.90
17992;DHT22;9121;50.926;5.340;2023-04-01T17:19:39;10.60;99.90
17992;DHT22;9121;50.926;5.340;2023-04-01T17:22:27;10.60;99.90
17992;DHT22;9121;50.926;5.340;2023-04-01T17:25:20;10.60;99.90
17992;DHT22;9121;50.926;5.340;2023-04-01T17:27:59;10.50;99.90
17992;DHT22;9121;50.926;5.340;2023-04-01T17:30:33;10.50;99.90
17992;DHT22;9121;50.926;5.340;2023-04-01T17:36:12;10.40;99.90
17992;DHT22;9121;50.926;5.340;2023-04-01T17:38:57;10.40;99.90
17992;DHT22;9121;50.926;5.340;2023-04-01T17:41:41;10.30;99.90
17992;DHT22;9121;50.926;5.340;2023-04-01T17:44:22;10.20;99.90
17992;DHT22;9121;50.926;5.340;2023-04-01T17:47:11;10.20;99.90
17992;DHT22;9121;50.926;5.340;2023-04-01T17:49:51;10.20;99.90
17992;DHT22;9121;50.926;5.340;2023-04-01T17:52:23;10.20;99.90
17992;DHT22;9121;50.926;5.340;2023-04-01T17:54:59;10.10;99.90
17992;DHT22;9121;50.926;5.340;2023-04-01T17:57:39;10.10;99.90
17992;DHT22;9121;50.926;5.340;2023-04-01T18:00:19;10.10;99.90
17992;DHT22;9121;50.926;5.340;2023-04-01T18:02:55;10.10;99.90
17992;DHT22;9121;50.926;5.340;2023-04-01T18:05:51;10.10;99.90
17992;DHT22;9121;50.926;5.340;2023-04-01T18:08:40;10.10;99.90
17992;DHT22;9121;50.926;5.340;2023-04-01T18:11:13;10.10;99.90
17992;DHT22;9121;50.926;5.340;2023-04-01T18:16:50;10.00;99.90
17992;DHT22;9121;50.926;5.340;2023-04-01T18:19:28;10.00;99.90
17992;DHT22;9121;50.926;5.340;2023-04-01T18:22:10;10.10;99.90